createdAt,value
2022-07-29T00:03:04.276Z,15.14
2022-07-29T00:13:08.348Z,15.10
2022-07-29T00:23:13.704Z,15.08
2022-07-29T00:33:17.759Z,15.22
2022-07-29T00:43:20.511Z,15.21
2022-07-29T00:53:25.300Z,15.34
2022-07-29T01:03:29.934Z,15.30
2022-07-29T01:13:35.112Z,15.32
2022-07-29T01:24:03.307Z,15.37
2022-07-29T01:34:10.591Z,15.40
2022-07-29T01:44:17.196Z,15.53
2022-07-29T01:54:27.355Z,15.60
2022-07-29T02:04:30.876Z,15.62
2022-07-29T02:14:38.720Z,15.70
2022-07-29T02:24:42.956Z,15.76
2022-07-29T02:34:48.317Z,15.78
2022-07-29T02:44:51.315Z,15.74
2022-07-29T02:54:58.618Z,15.74
2022-07-29T03:05:03.846Z,15.70
2022-07-29T03:15:09.287Z,15.76
2022-07-29T03:25:12.935Z,15.72
2022-07-29T03:35:17.469Z,15.69
2022-07-29T03:45:21.565Z,15.68
2022-07-29T03:55:26.223Z,15.68
2022-07-29T04:05:28.856Z,15.62
2022-07-29T04:15:32.889Z,15.66
2022-07-29T04:25:38.408Z,15.68
2022-07-29T04:35:48.212Z,15.78
2022-07-29T04:45:53.463Z,15.83
2022-07-29T04:55:57.563Z,15.96
2022-07-29T05:06:00.216Z,16.04
2022-07-29T05:16:04.257Z,16.13
2022-07-29T05:26:06.950Z,16.21
2022-07-29T05:36:10.964Z,16.20
2022-07-29T05:46:14.888Z,16.42
2022-07-29T05:56:18.976Z,16.55
2022-07-29T06:06:21.689Z,16.77
2022-07-29T06:16:29.829Z,17.01
2022-07-29T06:26:36.509Z,17.11
2022-07-29T06:36:43.656Z,17.29
2022-07-29T06:46:48.040Z,17.47
2022-07-29T06:56:52.068Z,17.68
2022-07-29T07:06:56.515Z,18.06
2022-07-29T07:17:01.534Z,18.34
2022-07-29T07:27:04.566Z,18.89
2022-07-29T07:37:08.543Z,19.66
2022-07-29T07:47:12.498Z,20.53
2022-07-29T07:57:17.308Z,20.92
2022-07-29T08:07:19.950Z,20.86
2022-07-29T08:17:24.022Z,20.79
2022-07-29T08:27:42.967Z,21.04
2022-07-29T08:37:47.832Z,21.38
2022-07-29T08:47:50.541Z,21.62
2022-07-29T08:57:57.503Z,21.90
2022-07-29T09:08:01.080Z,22.41
2022-07-29T09:18:05.221Z,22.80
2022-07-29T09:28:09.700Z,22.98
2022-07-29T09:38:14.788Z,23.82
2022-07-29T09:48:19.499Z,24.12
2022-07-29T09:58:24.417Z,24.25
2022-07-29T10:08:27.838Z,24.44
2022-07-29T10:18:32.632Z,24.66
2022-07-29T10:28:36.739Z,25.08
2022-07-29T10:38:47.174Z,25.33
2022-07-29T10:49:08.037Z,25.51
2022-07-29T10:59:32.472Z,25.45
2022-07-29T11:09:39.567Z,25.45
2022-07-29T11:19:49.264Z,25.38
2022-07-29T11:29:56.874Z,25.22
2022-07-29T11:40:14.820Z,25.17
2022-07-29T11:50:29.169Z,25.09
2022-07-29T12:00:34.950Z,25.48
2022-07-29T12:10:37.803Z,25.65
2022-07-29T12:20:41.812Z,25.48
2022-07-29T12:30:49.702Z,25.16
2022-07-29T12:40:56.629Z,24.84
2022-07-29T12:51:02.243Z,24.56
2022-07-29T13:01:17.455Z,24.45
2022-07-29T13:11:30.886Z,24.49
2022-07-29T13:21:39.051Z,24.45
2022-07-29T13:31:41.782Z,24.29
2022-07-29T13:41:45.750Z,24.20
2022-07-29T13:51:48.513Z,23.98
2022-07-29T14:01:52.564Z,23.87
2022-07-29T14:11:55.636Z,23.66
2022-07-29T14:22:00.176Z,23.42
2022-07-29T14:32:03.435Z,23.28
2022-07-29T14:42:08.819Z,23.28
2022-07-29T14:52:11.876Z,23.39
2022-07-29T15:02:15.873Z,23.05
2022-07-29T15:12:18.860Z,22.60
2022-07-29T15:22:22.820Z,22.42
2022-07-29T15:32:25.507Z,22.48
2022-07-29T15:42:29.471Z,22.61
2022-07-29T15:52:32.163Z,23.17
2022-07-29T16:02:36.216Z,23.70
2022-07-29T16:12:38.888Z,24.09
2022-07-29T16:22:42.897Z,24.39
2022-07-29T16:32:45.525Z,24.53
2022-07-29T16:42:49.600Z,24.69
2022-07-29T16:52:52.338Z,24.71
2022-07-29T17:02:56.379Z,24.61
2022-07-29T17:12:59.022Z,24.76
2022-07-29T17:23:03.129Z,24.87
2022-07-29T17:33:05.772Z,24.80
2022-07-29T17:43:10.232Z,24.88
2022-07-29T17:53:15.837Z,24.82
2022-07-29T18:03:21.069Z,24.51
2022-07-29T18:13:23.850Z,24.44
2022-07-29T18:23:28.067Z,24.33
2022-07-29T18:33:32.373Z,23.86
2022-07-29T18:43:36.408Z,23.34
2022-07-29T18:53:39.081Z,22.96
2022-07-29T19:03:44.425Z,22.54
2022-07-29T19:13:47.085Z,22.13
2022-07-29T19:24:01.889Z,21.75
2022-07-29T19:34:10.267Z,21.33
2022-07-29T19:44:15.411Z,21.00
2022-07-29T19:54:18.231Z,20.43
2022-07-29T20:04:22.267Z,20.14
2022-07-29T20:14:25.164Z,20.16
2022-07-29T20:24:29.180Z,20.14
2022-07-29T20:34:32.026Z,20.16
2022-07-29T20:44:36.223Z,20.15
2022-07-29T20:54:38.908Z,20.02
2022-07-29T21:04:43.637Z,19.79
2022-07-29T21:14:49.753Z,19.54
2022-07-29T21:24:53.803Z,19.53
2022-07-29T21:34:56.540Z,19.56
2022-07-29T21:45:00.550Z,19.58
2022-07-29T21:55:03.347Z,19.50
2022-07-29T22:05:08.150Z,19.48
2022-07-29T22:15:11.963Z,19.40
2022-07-29T22:25:18.679Z,19.31
2022-07-29T22:35:21.337Z,19.22
2022-07-29T22:45:25.751Z,19.12
2022-07-29T22:55:28.403Z,19.20
2022-07-29T23:05:33.404Z,18.97
2022-07-29T23:15:36.049Z,18.84
2022-07-29T23:25:40.049Z,18.81
2022-07-29T23:35:42.783Z,18.69
2022-07-29T23:45:48.804Z,18.59
2022-07-29T23:55:51.608Z,18.55
